sensor_id;sensor_type;location;lat;lon;timestamp;temperature;humidity
52513;DHT22;38422;53.172;6.974;2024-02-14T00:01:54;6.70;99.90
52513;DHT22;38422;53.172;6.974;2024-02-14T00:04:20;6.70;99.90
52513;DHT22;38422;53.172;6.974;2024-02-14T00:06:47;6.70;99.90
52513;DHT22;38422;53.172;6.974;2024-02-14T00:09:12;6.70;99.90
52513;DHT22;38422;53.172;6.974;2024-02-14T00:11:38;6.60;99.90
52513;DHT22;38422;53.172;6.974;2024-02-14T00:14:04;6.60;99.90
52513;DHT22;38422;53.172;6.974;2024-02-14T00:16:30;6.70;99.90
52513;DHT22;38422;53.172;6.974;2024-02-14T00:18:56;6.60;99.90
52513;DHT22;38422;53.172;6.974;2024-02-14T00:21:23;6.60;99.90
52513;DHT22;38422;53.172;6.974;2024-02-14T00:23:50;6.60;99.90
52513;DHT22;38422;53.172;6.974;2024-02-14T00:26:15;6.60;99.90
52513;DHT22;38422;53.172;6.974;2024-02-14T00:28:41;6.60;99.90
52513;DHT22;38422;53.172;6.974;2024-02-14T00:31:07;6.60;99.90
52513;DHT22;38422;53.172;6.974;2024-02-14T00:33:32;6.60;99.90
52513;DHT22;38422;53.172;6.974;2024-02-14T00:35:58;6.60;99.90
52513;DHT22;38422;53.172;6.974;2024-02-14T00:38:24;6.60;99.90
52513;DHT22;38422;53.172;6.974;2024-02-14T00:40:50;6.60;99.90
52513;DHT22;38422;53.172;6.974;2024-02-14T00:43:15;6.60;99.90
52513;DHT22;38422;53.172;6.974;2024-02-14T00:45:41;6.60;99.90
52513;DHT22;38422;53.172;6.974;2024-02-14T00:48:07;6.60;99.90
52513;DHT22;38422;53.172;6.974;2024-02-14T00:50:33;6.60;99.90
52513;DHT22;38422;53.172;6.974;2024-02-14T00:53:03;6.60;99.90
52513;DHT22;38422;53.172;6.974;2024-02-14T00:55:29;6.60;99.90
52513;DHT22;38422;53.172;6.974;2024-02-14T00:57:54;6.60;99.90
52513;DHT22;38422;53.172;6.974;2024-02-14T01:00:20;6.60;99.90
52513;DHT22;38422;53.172;6.974;2024-02-14T01:02:46;6.60;99.90
52513;DHT22;38422;53.172;6.974;2024-02-14T01:05:11;6.60;99.90
52513;DHT22;38422;53.172;6.974;2024-02-14T01:07:37;6.70;99.90
52513;DHT22;38422;53.172;6.974;2024-02-14T01:10:03;6.60;99.90
52513;DHT22;38422;53.172;6.974;2024-02-14T01:12:29;6.60;99.90
52513;DHT22;38422;53.172;6.974;2024-02-14T01:14:55;6.70;99.90
52513;DHT22;38422;53.172;6.974;2024-02-14T01:17:21;6.70;99.90
52513;DHT22;38422;53.172;6.974;2024-02-14T01:19:46;6.70;99.90
52513;DHT22;38422;53.172;6.974;2024-02-14T01:22:12;6.70;99.90
52513;DHT22;38422;53.172;6.974;2024-02-14T01:24:42;6.70;99.90
52513;DHT22;38422;53.172;6.974;2024-02-14T01:27:08;6.70;99.90
52513;DHT22;38422;53.172;6.974;2024-02-14T01:29:34;6.70;99.90
52513;DHT22;38422;53.172;6.974;2024-02-14T01:32:00;6.70;99.90
52513;DHT22;38422;53.172;6.974;2024-02-14T01:34:26;6.70;99.90
52513;DHT22;38422;53.172;6.974;2024-02-14T01:36:54;6.70;99.90
52513;DHT22;38422;53.172;6.974;2024-02-14T01:39:20;6.70;99.90
52513;DHT22;38422;53.172;6.974;2024-02-14T01:41:48;6.70;99.90
52513;DHT22;38422;53.172;6.974;2024-02-14T01:44:17;6.70;99.90
52513;DHT22;38422;53.172;6.974;2024-02-14T01:46:44;6.70;99.90
52513;DHT22;38422;53.172;6.974;2024-02-14T01:49:10;6.70;99.90
52513;DHT22;38422;53.172;6.974;2024-02-14T01:51:40;6.70;99.90
52513;DHT22;38422;53.172;6.974;2024-02-14T01:54:08;6.70;99.90
52513;DHT22;38422;53.172;6.974;2024-02-14T01:56:35;6.70;99.90
52513;DHT22;38422;53.172;6.974;2024-02-14T01:59:01;6.80;99.90
52513;DHT22;38422;53.172;6.974;2024-02-14T02:01:27;6.80;99.90
52513;DHT22;38422;53.172;6.974;2024-02-14T02:03:53;6.80;99.90
52513;DHT22;38422;53.172;6.974;2024-02-14T02:06:19;6.80;99.90
52513;DHT22;38422;53.172;6.974;2024-02-14T02:08:45;6.80;99.90
52513;DHT22;38422;53.172;6.974;2024-02-14T02:11:11;6.80;99.90
52513;DHT22;38422;53.172;6.974;2024-02-14T02:13:37;6.80;99.90
52513;DHT22;38422;53.172;6.974;2024-02-14T02:16:05;6.80;99.90
52513;DHT22;38422;53.172;6.974;2024-02-14T02:18:34;6.80;99.90
52513;DHT22;38422;53.172;6.974;2024-02-14T02:21:00;6.80;99.90
52513;DHT22;38422;53.172;6.974;2024-02-14T02:23:29;6.80;99.90
52513;DHT22;38422;53.172;6.974;2024-02-14T02:25:56;6.80;99.90
52513;DHT22;38422;53.172;6.974;2024-02-14T02:28:21;6.80;99.90
52513;DHT22;38422;53.172;6.974;2024-02-14T02:30:48;6.80;99.90
52513;DHT22;38422;53.172;6.974;2024-02-14T02:33:13;6.90;99.90
52513;DHT22;38422;53.172;6.974;2024-02-14T02:35:41;6.90;99.90
52513;DHT22;38422;53.172;6.974;2024-02-14T02:38:07;6.90;99.90
52513;DHT22;38422;53.172;6.974;2024-02-14T02:40:33;6.90;99.90
52513;DHT22;38422;53.172;6.974;2024-02-14T02:42:59;6.90;99.90
52513;DHT22;38422;53.172;6.974;2024-02-14T02:45:25;6.90;99.90
52513;DHT22;38422;53.172;6.974;2024-02-14T02:47:51;7.00;99.90
52513;DHT22;38422;53.172;6.974;2024-02-14T02:50:18;7.00;99.90
52513;DHT22;38422;53.172;6.974;2024-02-14T02:52:45;7.00;99.90
52513;DHT22;38422;53.172;6.974;2024-02-14T02:55:11;7.00;99.90
52513;DHT22;38422;53.172;6.974;2024-02-14T02:57:36;7.00;99.90
52513;DHT22;38422;53.172;6.974;2024-02-14T03:00:03;7.00;99.90
52513;DHT22;38422;53.172;6.974;2024-02-14T03:02:30;7.10;99.90
52513;DHT22;38422;53.172;6.974;2024-02-14T03:04:56;7.10;99.90
52513;DHT22;38422;53.172;6.974;2024-02-14T03:07:22;7.10;99.90
52513;DHT22;38422;53.172;6.974;2024-02-14T03:09:49;7.10;99.90
52513;DHT22;38422;53.172;6.974;2024-02-14T03:12:14;7.10;99.90
52513;DHT22;38422;53.172;6.974;2024-02-14T03:14:44;7.10;99.90
52513;DHT22;38422;53.172;6.974;2024-02-14T03:17:10;7.10;99.90
52513;DHT22;38422;53.172;6.974;2024-02-14T03:19:36;7.10;99.90
52513;DHT22;38422;53.172;6.974;2024-02-14T03:22:04;7.20;99.90
52513;DHT22;38422;53.172;6.974;2024-02-14T03:24:34;7.20;99.90
52513;DHT22;38422;53.172;6.974;2024-02-14T03:27:03;7.20;99.90
52513;DHT22;38422;53.172;6.974;2024-02-14T03:29:30;7.20;99.90
52513;DHT22;38422;53.172;6.974;2024-02-14T03:31:55;7.20;99.90
52513;DHT22;38422;53.172;6.974;2024-02-14T03:34:24;7.20;99.90
52513;DHT22;38422;53.172;6.974;2024-02-14T03:36:50;7.20;99.90
52513;DHT22;38422;53.172;6.974;2024-02-14T03:39:16;7.20;99.90
52513;DHT22;38422;53.172;6.974;2024-02-14T03:41:42;7.30;99.90
52513;DHT22;38422;53.172;6.974;2024-02-14T03:44:08;7.30;99.90
52513;DHT22;38422;53.172;6.974;2024-02-14T03:46:34;7.30;99.90
52513;DHT22;38422;53.172;6.974;2024-02-14T03:49:01;7.30;99.90
52513;DHT22;38422;53.172;6.974;2024-02-14T03:51:27;7.30;99.90
52513;DHT22;38422;53.172;6.974;2024-02-14T03:53:52;7.30;99.90
52513;DHT22;38422;53.172;6.974;2024-02-14T03:56:18;7.40;99.90
52513;DHT22;38422;53.172;6.974;2024-02-14T03:58:44;7.30;99.90
52513;DHT22;38422;53.172;6.974;2024-02-14T04:01:09;7.40;99.90
52513;DHT22;38422;53.172;6.974;2024-02-14T04:03:35;7.40;99.90
52513;DHT22;38422;53.172;6.974;2024-02-14T04:06:01;7.40;99.90
52513;DHT22;38422;53.172;6.974;2024-02-14T04:08:27;7.40;99.90
52513;DHT22;38422;53.172;6.974;2024-02-14T04:10:52;7.50;99.90
52513;DHT22;38422;53.172;6.974;2024-02-14T04:13:21;7.50;99.90
52513;DHT22;38422;53.172;6.974;2024-02-14T04:15:47;7.50;99.90
52513;DHT22;38422;53.172;6.974;2024-02-14T04:18:13;7.50;99.90
52513;DHT22;38422;53.172;6.974;2024-02-14T04:20:41;7.50;99.90
52513;DHT22;38422;53.172;6.974;2024-02-14T04:23:07;7.60;99.90
52513;DHT22;38422;53.172;6.974;2024-02-14T04:25:33;7.60;99.90
52513;DHT22;38422;53.172;6.974;2024-02-14T04:27:59;7.60;99.90
52513;DHT22;38422;53.172;6.974;2024-02-14T04:30:28;7.60;99.90
52513;DHT22;38422;53.172;6.974;2024-02-14T04:32:53;7.70;99.90
52513;DHT22;38422;53.172;6.974;2024-02-14T04:35:22;7.70;99.90
52513;DHT22;38422;53.172;6.974;2024-02-14T04:37:48;7.70;99.90
52513;DHT22;38422;53.172;6.974;2024-02-14T04:40:15;7.70;99.90
52513;DHT22;38422;53.172;6.974;2024-02-14T04:42:43;7.70;99.90
52513;DHT22;38422;53.172;6.974;2024-02-14T04:45:09;7.80;99.90
52513;DHT22;38422;53.172;6.974;2024-02-14T04:47:35;7.80;99.90
52513;DHT22;38422;53.172;6.974;2024-02-14T04:50:01;7.90;99.90
52513;DHT22;38422;53.172;6.974;2024-02-14T04:52:29;7.90;99.90
52513;DHT22;38422;53.172;6.974;2024-02-14T04:54:55;7.90;99.90
52513;DHT22;38422;53.172;6.974;2024-02-14T04:57:22;7.90;99.90
52513;DHT22;38422;53.172;6.974;2024-02-14T04:59:47;7.90;99.90
52513;DHT22;38422;53.172;6.974;2024-02-14T05:02:13;8.00;99.90
52513;DHT22;38422;53.172;6.974;2024-02-14T05:04:39;8.00;99.90
52513;DHT22;38422;53.172;6.974;2024-02-14T05:07:05;8.00;99.90
52513;DHT22;38422;53.172;6.974;2024-02-14T05:09:30;8.00;99.90
52513;DHT22;38422;53.172;6.974;2024-02-14T05:11:56;8.00;99.90
52513;DHT22;38422;53.172;6.974;2024-02-14T05:14:22;8.10;99.90
52513;DHT22;38422;53.172;6.974;2024-02-14T05:16:49;8.10;99.90
52513;DHT22;38422;53.172;6.974;2024-02-14T05:19:14;8.10;99.90
52513;DHT22;38422;53.172;6.974;2024-02-14T05:21:40;8.10;99.90
52513;DHT22;38422;53.172;6.974;2024-02-14T05:24:06;8.10;99.90
52513;DHT22;38422;53.172;6.974;2024-02-14T05:26:34;8.10;99.90
52513;DHT22;38422;53.172;6.974;2024-02-14T05:28:59;8.10;99.90
52513;DHT22;38422;53.172;6.974;2024-02-14T05:31:42;8.20;99.90
52513;DHT22;38422;53.172;6.974;2024-02-14T05:34:08;8.20;99.90
52513;DHT22;38422;53.172;6.974;2024-02-14T05:36:35;8.20;99.90
52513;DHT22;38422;53.172;6.974;2024-02-14T05:39:01;8.20;99.90
52513;DHT22;38422;53.172;6.974;2024-02-14T05:41:26;8.20;99.90
52513;DHT22;38422;53.172;6.974;2024-02-14T05:43:52;8.30;99.90
52513;DHT22;38422;53.172;6.974;2024-02-14T05:46:18;8.30;99.90
52513;DHT22;38422;53.172;6.974;2024-02-14T05:48:46;8.30;99.90
52513;DHT22;38422;53.172;6.974;2024-02-14T05:51:12;8.30;99.90
52513;DHT22;38422;53.172;6.974;2024-02-14T05:53:38;8.30;99.90
52513;DHT22;38422;53.172;6.974;2024-02-14T05:56:03;8.40;99.90
52513;DHT22;38422;53.172;6.974;2024-02-14T05:58:29;8.40;99.90
52513;DHT22;38422;53.172;6.974;2024-02-14T06:00:55;8.40;99.90
52513;DHT22;38422;53.172;6.974;2024-02-14T06:03:22;8.40;99.90
52513;DHT22;38422;53.172;6.974;2024-02-14T06:05:48;8.40;99.90
52513;DHT22;38422;53.172;6.974;2024-02-14T06:08:13;8.40;99.90
52513;DHT22;38422;53.172;6.974;2024-02-14T06:10:39;8.40;99.90
52513;DHT22;38422;53.172;6.974;2024-02-14T06:13:05;8.50;99.90
52513;DHT22;38422;53.172;6.974;2024-02-14T06:15:31;8.50;99.90
52513;DHT22;38422;53.172;6.974;2024-02-14T06:17:56;8.50;99.90
52513;DHT22;38422;53.172;6.974;2024-02-14T06:20:23;8.50;99.90
52513;DHT22;38422;53.172;6.974;2024-02-14T06:22:48;8.50;99.90
52513;DHT22;38422;53.172;6.974;2024-02-14T06:25:14;8.60;99.90
52513;DHT22;38422;53.172;6.974;2024-02-14T06:27:41;8.60;99.90
52513;DHT22;38422;53.172;6.974;2024-02-14T06:30:08;8.60;99.90
52513;DHT22;38422;53.172;6.974;2024-02-14T06:32:34;8.60;99.90
52513;DHT22;38422;53.172;6.974;2024-02-14T06:34:59;8.60;99.90
52513;DHT22;38422;53.172;6.974;2024-02-14T06:37:25;8.60;99.90
52513;DHT22;38422;53.172;6.974;2024-02-14T06:39:51;8.60;99.90
52513;DHT22;38422;53.172;6.974;2024-02-14T06:42:17;8.60;99.90
52513;DHT22;38422;53.172;6.974;2024-02-14T06:44:43;8.60;99.90
52513;DHT22;38422;53.172;6.974;2024-02-14T06:47:09;8.60;99.90
52513;DHT22;38422;53.172;6.974;2024-02-14T06:49:34;8.60;99.90
52513;DHT22;38422;53.172;6.974;2024-02-14T06:52:00;8.60;99.90
52513;DHT22;38422;53.172;6.974;2024-02-14T06:54:26;8.70;99.90
52513;DHT22;38422;53.172;6.974;2024-02-14T06:56:52;8.70;99.90
52513;DHT22;38422;53.172;6.974;2024-02-14T06:59:20;8.70;99.90
52513;DHT22;38422;53.172;6.974;2024-02-14T07:01:46;8.70;99.90
52513;DHT22;38422;53.172;6.974;2024-02-14T07:04:11;8.70;99.90
52513;DHT22;38422;53.172;6.974;2024-02-14T07:06:37;8.70;99.90
52513;DHT22;38422;53.172;6.974;2024-02-14T07:09:03;8.70;99.90
52513;DHT22;38422;53.172;6.974;2024-02-14T07:11:28;8.70;99.90
52513;DHT22;38422;53.172;6.974;2024-02-14T07:13:54;8.80;99.90
52513;DHT22;38422;53.172;6.974;2024-02-14T07:16:20;8.80;99.90
52513;DHT22;38422;53.172;6.974;2024-02-14T07:18:45;8.80;99.90
52513;DHT22;38422;53.172;6.974;2024-02-14T07:21:11;8.80;99.90
52513;DHT22;38422;53.172;6.974;2024-02-14T07:23:37;8.80;99.90
52513;DHT22;38422;53.172;6.974;2024-02-14T07:26:03;8.90;99.90
52513;DHT22;38422;53.172;6.974;2024-02-14T07:28:28;8.90;99.90
52513;DHT22;38422;53.172;6.974;2024-02-14T07:30:54;8.90;99.90
52513;DHT22;38422;53.172;6.974;2024-02-14T07:33:20;8.90;99.90
52513;DHT22;38422;53.172;6.974;2024-02-14T07:35:46;9.00;99.90
52513;DHT22;38422;53.172;6.974;2024-02-14T07:38:13;9.00;99.90
52513;DHT22;38422;53.172;6.974;2024-02-14T07:40:38;9.00;99.90
52513;DHT22;38422;53.172;6.974;2024-02-14T07:43:05;9.00;99.90
52513;DHT22;38422;53.172;6.974;2024-02-14T07:45:32;9.00;99.90
52513;DHT22;38422;53.172;6.974;2024-02-14T07:47:58;9.00;99.90
52513;DHT22;38422;53.172;6.974;2024-02-14T07:50:24;9.10;99.90
52513;DHT22;38422;53.172;6.974;2024-02-14T07:52:49;9.10;99.90
52513;DHT22;38422;53.172;6.974;2024-02-14T07:55:15;9.10;99.90
52513;DHT22;38422;53.172;6.974;2024-02-14T07:57:42;9.10;99.90
52513;DHT22;38422;53.172;6.974;2024-02-14T08:00:08;9.10;99.90
52513;DHT22;38422;53.172;6.974;2024-02-14T08:02:36;9.10;99.90
52513;DHT22;38422;53.172;6.974;2024-02-14T08:05:02;9.10;99.90
52513;DHT22;38422;53.172;6.974;2024-02-14T08:07:30;9.20;99.90
52513;DHT22;38422;53.172;6.974;2024-02-14T08:09:56;9.20;99.90
52513;DHT22;38422;53.172;6.974;2024-02-14T08:12:22;9.20;99.90
52513;DHT22;38422;53.172;6.974;2024-02-14T08:14:48;9.20;99.90
52513;DHT22;38422;53.172;6.974;2024-02-14T08:17:14;9.30;99.90
52513;DHT22;38422;53.172;6.974;2024-02-14T08:19:40;9.30;99.90
52513;DHT22;38422;53.172;6.974;2024-02-14T08:22:06;9.30;99.90
52513;DHT22;38422;53.172;6.974;2024-02-14T08:24:32;9.30;99.90
52513;DHT22;38422;53.172;6.974;2024-02-14T08:26:58;9.30;99.90
52513;DHT22;38422;53.172;6.974;2024-02-14T08:29:24;9.30;99.90
52513;DHT22;38422;53.172;6.974;2024-02-14T08:31:49;9.30;99.90
52513;DHT22;38422;53.172;6.974;2024-02-14T08:34:16;9.30;99.90
52513;DHT22;38422;53.172;6.974;2024-02-14T08:36:42;9.40;99.90
52513;DHT22;38422;53.172;6.974;2024-02-14T08:39:08;9.40;99.90
52513;DHT22;38422;53.172;6.974;2024-02-14T08:41:38;9.40;99.90
52513;DHT22;38422;53.172;6.974;2024-02-14T08:44:05;9.40;99.90
52513;DHT22;38422;53.172;6.974;2024-02-14T08:46:31;9.50;99.90
52513;DHT22;38422;53.172;6.974;2024-02-14T08:48:59;9.50;99.90
52513;DHT22;38422;53.172;6.974;2024-02-14T08:51:25;9.50;99.90
52513;DHT22;38422;53.172;6.974;2024-02-14T08:53:50;9.60;99.90
52513;DHT22;38422;53.172;6.974;2024-02-14T08:56:20;9.60;99.90
52513;DHT22;38422;53.172;6.974;2024-02-14T08:58:49;9.60;99.90
52513;DHT22;38422;53.172;6.974;2024-02-14T09:01:15;9.60;99.90
52513;DHT22;38422;53.172;6.974;2024-02-14T09:03:44;9.60;99.90
52513;DHT22;38422;53.172;6.974;2024-02-14T09:06:14;9.70;99.90
52513;DHT22;38422;53.172;6.974;2024-02-14T09:08:40;9.70;99.90
52513;DHT22;38422;53.172;6.974;2024-02-14T09:11:06;9.70;99.90
52513;DHT22;38422;53.172;6.974;2024-02-14T09:13:32;9.70;99.90
52513;DHT22;38422;53.172;6.974;2024-02-14T09:15:57;9.70;99.90
52513;DHT22;38422;53.172;6.974;2024-02-14T09:18:23;9.80;99.90
52513;DHT22;38422;53.172;6.974;2024-02-14T09:20:50;9.80;99.90
52513;DHT22;38422;53.172;6.974;2024-02-14T09:23:17;9.80;99.90
52513;DHT22;38422;53.172;6.974;2024-02-14T09:25:48;9.90;99.90
52513;DHT22;38422;53.172;6.974;2024-02-14T09:28:15;10.00;99.90
52513;DHT22;38422;53.172;6.974;2024-02-14T09:30:41;10.00;99.90
52513;DHT22;38422;53.172;6.974;2024-02-14T09:33:07;10.00;99.90
52513;DHT22;38422;53.172;6.974;2024-02-14T09:35:33;10.00;99.90
52513;DHT22;38422;53.172;6.974;2024-02-14T09:37:58;10.10;99.90
52513;DHT22;38422;53.172;6.974;2024-02-14T09:40:25;10.10;99.90
52513;DHT22;38422;53.172;6.974;2024-02-14T09:42:55;10.10;99.90
52513;DHT22;38422;53.172;6.974;2024-02-14T09:45:27;10.10;99.90
52513;DHT22;38422;53.172;6.974;2024-02-14T09:47:56;10.10;99.90
52513;DHT22;38422;53.172;6.974;2024-02-14T09:50:23;10.20;99.90
52513;DHT22;38422;53.172;6.974;2024-02-14T09:52:50;10.20;99.90
52513;DHT22;38422;53.172;6.974;2024-02-14T09:55:17;10.20;99.90
52513;DHT22;38422;53.172;6.974;2024-02-14T09:57:43;10.20;99.90
52513;DHT22;38422;53.172;6.974;2024-02-14T10:00:10;10.30;99.90
52513;DHT22;38422;53.172;6.974;2024-02-14T10:02:37;10.30;99.90
52513;DHT22;38422;53.172;6.974;2024-02-14T10:05:03;10.30;99.90
52513;DHT22;38422;53.172;6.974;2024-02-14T10:07:29;10.40;99.90
52513;DHT22;38422;53.172;6.974;2024-02-14T10:10:05;10.40;99.90
52513;DHT22;38422;53.172;6.974;2024-02-14T10:12:31;10.40;99.90
52513;DHT22;38422;53.172;6.974;2024-02-14T10:14:57;10.40;99.90
52513;DHT22;38422;53.172;6.974;2024-02-14T10:17:22;10.30;99.90
52513;DHT22;38422;53.172;6.974;2024-02-14T10:19:58;10.40;99.90
52513;DHT22;38422;53.172;6.974;2024-02-14T10:22:24;10.40;99.90
52513;DHT22;38422;53.172;6.974;2024-02-14T10:24:51;10.40;99.90
52513;DHT22;38422;53.172;6.974;2024-02-14T10:27:17;10.30;99.90
52513;DHT22;38422;53.172;6.974;2024-02-14T10:29:42;10.40;99.90
52513;DHT22;38422;53.172;6.974;2024-02-14T10:32:10;10.40;99.90
52513;DHT22;38422;53.172;6.974;2024-02-14T10:34:37;10.30;99.90
52513;DHT22;38422;53.172;6.974;2024-02-14T10:37:05;10.40;99.90
52513;DHT22;38422;53.172;6.974;2024-02-14T10:39:32;10.40;99.90
52513;DHT22;38422;53.172;6.974;2024-02-14T10:41:59;10.30;99.90
52513;DHT22;38422;53.172;6.974;2024-02-14T10:44:26;10.40;99.90
52513;DHT22;38422;53.172;6.974;2024-02-14T10:46:53;10.40;99.90
52513;DHT22;38422;53.172;6.974;2024-02-14T10:49:22;10.40;99.90
52513;DHT22;38422;53.172;6.974;2024-02-14T10:51:49;10.40;99.90
52513;DHT22;38422;53.172;6.974;2024-02-14T10:54:17;10.40;99.90
52513;DHT22;38422;53.172;6.974;2024-02-14T10:56:49;10.40;99.90
52513;DHT22;38422;53.172;6.974;2024-02-14T10:59:19;10.40;99.90
52513;DHT22;38422;53.172;6.974;2024-02-14T11:01:46;10.40;99.90
52513;DHT22;38422;53.172;6.974;2024-02-14T11:04:12;10.40;99.90
52513;DHT22;38422;53.172;6.974;2024-02-14T11:06:51;10.40;99.90
52513;DHT22;38422;53.172;6.974;2024-02-14T11:09:19;10.40;99.90
52513;DHT22;38422;53.172;6.974;2024-02-14T11:11:45;10.50;99.90
52513;DHT22;38422;53.172;6.974;2024-02-14T11:14:15;10.40;99.90
52513;DHT22;38422;53.172;6.974;2024-02-14T11:16:41;10.40;99.90
52513;DHT22;38422;53.172;6.974;2024-02-14T11:19:11;10.40;99.90
52513;DHT22;38422;53.172;6.974;2024-02-14T11:21:41;10.40;99.90
52513;DHT22;38422;53.172;6.974;2024-02-14T11:24:13;10.40;99.90
52513;DHT22;38422;53.172;6.974;2024-02-14T11:26:49;10.40;99.90
52513;DHT22;38422;53.172;6.974;2024-02-14T11:29:17;10.40;99.90
52513;DHT22;38422;53.172;6.974;2024-02-14T11:31:44;10.50;99.90
52513;DHT22;38422;53.172;6.974;2024-02-14T11:34:16;10.40;99.90
52513;DHT22;38422;53.172;6.974;2024-02-14T11:36:42;10.50;99.90
52513;DHT22;38422;53.172;6.974;2024-02-14T11:39:08;10.50;99.90
52513;DHT22;38422;53.172;6.974;2024-02-14T11:41:34;10.50;99.90
52513;DHT22;38422;53.172;6.974;2024-02-14T11:44:04;10.60;99.90
52513;DHT22;38422;53.172;6.974;2024-02-14T11:46:34;10.60;99.90
52513;DHT22;38422;53.172;6.974;2024-02-14T11:49:02;10.60;99.90
52513;DHT22;38422;53.172;6.974;2024-02-14T11:51:33;10.60;99.90
52513;DHT22;38422;53.172;6.974;2024-02-14T11:53:59;10.70;99.90
52513;DHT22;38422;53.172;6.974;2024-02-14T11:56:33;10.70;99.90
52513;DHT22;38422;53.172;6.974;2024-02-14T11:59:03;10.70;99.90
52513;DHT22;38422;53.172;6.974;2024-02-14T12:01:30;10.70;99.90
52513;DHT22;38422;53.172;6.974;2024-02-14T12:03:58;10.80;99.90
52513;DHT22;38422;53.172;6.974;2024-02-14T12:06:27;10.80;99.90
52513;DHT22;38422;53.172;6.974;2024-02-14T12:08:54;10.80;99.90
52513;DHT22;38422;53.172;6.974;2024-02-14T12:11:20;10.80;99.90
52513;DHT22;38422;53.172;6.974;2024-02-14T12:13:50;10.80;99.90
52513;DHT22;38422;53.172;6.974;2024-02-14T12:16:16;10.80;99.90
52513;DHT22;38422;53.172;6.974;2024-02-14T12:18:44;10.80;99.90
52513;DHT22;38422;53.172;6.974;2024-02-14T12:21:10;10.90;99.90
52513;DHT22;38422;53.172;6.974;2024-02-14T12:23:36;10.90;99.90
52513;DHT22;38422;53.172;6.974;2024-02-14T12:26:03;10.90;99.90
52513;DHT22;38422;53.172;6.974;2024-02-14T12:28:30;10.90;99.90
52513;DHT22;38422;53.172;6.974;2024-02-14T12:30:57;10.90;99.90
52513;DHT22;38422;53.172;6.974;2024-02-14T12:33:24;10.90;99.90
52513;DHT22;38422;53.172;6.974;2024-02-14T12:35:51;10.90;99.90
52513;DHT22;38422;53.172;6.974;2024-02-14T12:38:18;11.00;99.90
52513;DHT22;38422;53.172;6.974;2024-02-14T12:40:45;11.00;99.90
52513;DHT22;38422;53.172;6.974;2024-02-14T12:43:12;11.00;99.90
52513;DHT22;38422;53.172;6.974;2024-02-14T12:45:38;11.00;99.90
52513;DHT22;38422;53.172;6.974;2024-02-14T12:48:07;11.00;99.90
52513;DHT22;38422;53.172;6.974;2024-02-14T12:50:34;11.00;99.90
52513;DHT22;38422;53.172;6.974;2024-02-14T12:53:06;11.10;99.90
52513;DHT22;38422;53.172;6.974;2024-02-14T12:55:33;11.10;99.90
52513;DHT22;38422;53.172;6.974;2024-02-14T12:57:59;11.10;99.90
52513;DHT22;38422;53.172;6.974;2024-02-14T13:00:25;11.10;99.90
52513;DHT22;38422;53.172;6.974;2024-02-14T13:02:52;11.00;99.90
52513;DHT22;38422;53.172;6.974;2024-02-14T13:05:19;11.00;99.90
52513;DHT22;38422;53.172;6.974;2024-02-14T13:07:45;11.00;99.90
52513;DHT22;38422;53.172;6.974;2024-02-14T13:10:12;11.00;99.90
52513;DHT22;38422;53.172;6.974;2024-02-14T13:12:38;11.00;99.90
52513;DHT22;38422;53.172;6.974;2024-02-14T13:15:05;11.00;99.90
52513;DHT22;38422;53.172;6.974;2024-02-14T13:17:31;11.00;99.90
52513;DHT22;38422;53.172;6.974;2024-02-14T13:19:57;11.00;99.90
52513;DHT22;38422;53.172;6.974;2024-02-14T13:22:25;11.00;99.90
52513;DHT22;38422;53.172;6.974;2024-02-14T13:24:51;11.00;99.90
52513;DHT22;38422;53.172;6.974;2024-02-14T13:27:17;11.00;99.90
52513;DHT22;38422;53.172;6.974;2024-02-14T13:29:42;11.00;99.90
52513;DHT22;38422;53.172;6.974;2024-02-14T13:32:09;11.00;99.90
52513;DHT22;38422;53.172;6.974;2024-02-14T13:34:34;11.00;99.90
52513;DHT22;38422;53.172;6.974;2024-02-14T13:37:00;11.00;99.90
52513;DHT22;38422;53.172;6.974;2024-02-14T13:39:27;11.00;99.90
52513;DHT22;38422;53.172;6.974;2024-02-14T13:41:53;11.00;99.90
52513;DHT22;38422;53.172;6.974;2024-02-14T13:44:20;11.00;99.90
52513;DHT22;38422;53.172;6.974;2024-02-14T13:46:46;11.00;99.90
52513;DHT22;38422;53.172;6.974;2024-02-14T13:49:12;11.00;99.90
52513;DHT22;38422;53.172;6.974;2024-02-14T13:51:41;11.00;99.90
52513;DHT22;38422;53.172;6.974;2024-02-14T13:54:07;11.00;99.90
52513;DHT22;38422;53.172;6.974;2024-02-14T13:56:34;11.00;99.90
52513;DHT22;38422;53.172;6.974;2024-02-14T13:59:00;11.00;99.90
52513;DHT22;38422;53.172;6.974;2024-02-14T14:01:26;11.00;99.90
52513;DHT22;38422;53.172;6.974;2024-02-14T14:03:52;11.00;99.90
52513;DHT22;38422;53.172;6.974;2024-02-14T14:06:20;11.00;99.90
52513;DHT22;38422;53.172;6.974;2024-02-14T14:08:49;11.00;99.90
52513;DHT22;38422;53.172;6.974;2024-02-14T14:11:15;11.00;99.90
52513;DHT22;38422;53.172;6.974;2024-02-14T14:13:41;11.00;99.90
52513;DHT22;38422;53.172;6.974;2024-02-14T14:16:07;11.00;99.90
52513;DHT22;38422;53.172;6.974;2024-02-14T14:18:32;11.00;99.90
52513;DHT22;38422;53.172;6.974;2024-02-14T14:20:58;11.00;99.90
52513;DHT22;38422;53.172;6.974;2024-02-14T14:23:24;11.00;99.90
52513;DHT22;38422;53.172;6.974;2024-02-14T14:25:50;11.00;99.90
52513;DHT22;38422;53.172;6.974;2024-02-14T14:28:15;11.10;99.90
52513;DHT22;38422;53.172;6.974;2024-02-14T14:30:43;11.10;99.90
52513;DHT22;38422;53.172;6.974;2024-02-14T14:33:09;11.10;99.90
52513;DHT22;38422;53.172;6.974;2024-02-14T14:35:36;11.10;99.90
52513;DHT22;38422;53.172;6.974;2024-02-14T14:38:05;11.10;99.90
52513;DHT22;38422;53.172;6.974;2024-02-14T14:40:32;11.10;99.90
52513;DHT22;38422;53.172;6.974;2024-02-14T14:42:57;11.10;99.90
52513;DHT22;38422;53.172;6.974;2024-02-14T14:45:23;11.10;99.90
52513;DHT22;38422;53.172;6.974;2024-02-14T14:47:49;11.10;99.90
52513;DHT22;38422;53.172;6.974;2024-02-14T14:50:15;11.10;99.90
52513;DHT22;38422;53.172;6.974;2024-02-14T14:52:43;11.10;99.90
52513;DHT22;38422;53.172;6.974;2024-02-14T14:55:09;11.20;99.90
52513;DHT22;38422;53.172;6.974;2024-02-14T14:57:35;11.20;99.90
52513;DHT22;38422;53.172;6.974;2024-02-14T15:00:11;11.20;99.90
52513;DHT22;38422;53.172;6.974;2024-02-14T15:02:42;11.20;99.90
52513;DHT22;38422;53.172;6.974;2024-02-14T15:05:14;11.20;99.90
52513;DHT22;38422;53.172;6.974;2024-02-14T15:07:40;11.20;99.90
52513;DHT22;38422;53.172;6.974;2024-02-14T15:10:06;11.20;99.90
52513;DHT22;38422;53.172;6.974;2024-02-14T15:12:33;11.20;99.90
52513;DHT22;38422;53.172;6.974;2024-02-14T15:15:05;11.20;99.90
52513;DHT22;38422;53.172;6.974;2024-02-14T15:17:30;11.20;99.90
52513;DHT22;38422;53.172;6.974;2024-02-14T15:19:56;11.20;99.90
52513;DHT22;38422;53.172;6.974;2024-02-14T15:22:23;11.20;99.90
52513;DHT22;38422;53.172;6.974;2024-02-14T15:24:54;11.20;99.90
52513;DHT22;38422;53.172;6.974;2024-02-14T15:27:20;11.20;99.90
52513;DHT22;38422;53.172;6.974;2024-02-14T15:29:50;11.20;99.90
52513;DHT22;38422;53.172;6.974;2024-02-14T15:32:54;11.20;99.90
52513;DHT22;38422;53.172;6.974;2024-02-14T15:35:38;11.20;99.90
52513;DHT22;38422;53.172;6.974;2024-02-14T15:38:04;11.10;99.90